sensor_id;sensor_type;location;lat;lon;timestamp;temperature;humidity
6538;DHT22;3302;52.508;13.454;2022-12-01T00:00:58;1.50;99.90
6538;DHT22;3302;52.508;13.454;2022-12-01T00:03:25;1.60;99.90
6538;DHT22;3302;52.508;13.454;2022-12-01T00:06:01;1.50;99.90
6538;DHT22;3302;52.508;13.454;2022-12-01T00:08:28;1.50;99.90
6538;DHT22;3302;52.508;13.454;2022-12-01T00:10:54;1.50;99.90
6538;DHT22;3302;52.508;13.454;2022-12-01T00:13:20;1.30;99.90
6538;DHT22;3302;52.508;13.454;2022-12-01T00:15:46;1.40;99.90
6538;DHT22;3302;52.508;13.454;2022-12-01T00:18:12;1.40;99.90
6538;DHT22;3302;52.508;13.454;2022-12-01T00:20:38;1.50;99.90
6538;DHT22;3302;52.508;13.454;2022-12-01T00:23:05;1.20;99.90
6538;DHT22;3302;52.508;13.454;2022-12-01T00:25:31;1.10;99.90
6538;DHT22;3302;52.508;13.454;2022-12-01T00:27:56;1.10;99.90
6538;DHT22;3302;52.508;13.454;2022-12-01T00:30:23;1.10;99.90
6538;DHT22;3302;52.508;13.454;2022-12-01T00:32:49;1.00;99.90
6538;DHT22;3302;52.508;13.454;2022-12-01T00:35:15;1.00;99.90
6538;DHT22;3302;52.508;13.454;2022-12-01T00:37:42;1.10;99.90
6538;DHT22;3302;52.508;13.454;2022-12-01T00:40:09;1.10;99.90
6538;DHT22;3302;52.508;13.454;2022-12-01T00:42:35;1.20;99.90
6538;DHT22;3302;52.508;13.454;2022-12-01T00:45:01;1.40;99.90
6538;DHT22;3302;52.508;13.454;2022-12-01T00:47:26;1.50;99.90
6538;DHT22;3302;52.508;13.454;2022-12-01T00:49:52;1.50;99.90
6538;DHT22;3302;52.508;13.454;2022-12-01T00:52:18;1.40;99.90
6538;DHT22;3302;52.508;13.454;2022-12-01T00:54:45;1.20;99.90
6538;DHT22;3302;52.508;13.454;2022-12-01T00:57:11;1.20;99.90
6538;DHT22;3302;52.508;13.454;2022-12-01T00:59:37;1.10;99.90
6538;DHT22;3302;52.508;13.454;2022-12-01T01:02:03;1.10;99.90
6538;DHT22;3302;52.508;13.454;2022-12-01T01:04:31;1.00;99.90
6538;DHT22;3302;52.508;13.454;2022-12-01T01:06:57;1.00;99.90
6538;DHT22;3302;52.508;13.454;2022-12-01T01:09:23;0.90;99.90
6538;DHT22;3302;52.508;13.454;2022-12-01T01:11:48;0.90;99.90
6538;DHT22;3302;52.508;13.454;2022-12-01T01:14:14;1.00;99.90
6538;DHT22;3302;52.508;13.454;2022-12-01T01:16:40;1.20;99.90
6538;DHT22;3302;52.508;13.454;2022-12-01T01:19:06;1.30;99.90
6538;DHT22;3302;52.508;13.454;2022-12-01T01:21:32;1.50;99.90
6538;DHT22;3302;52.508;13.454;2022-12-01T01:23:58;1.30;99.90
6538;DHT22;3302;52.508;13.454;2022-12-01T01:26:29;1.20;99.90
6538;DHT22;3302;52.508;13.454;2022-12-01T01:28:57;1.30;99.90
6538;DHT22;3302;52.508;13.454;2022-12-01T01:31:24;1.40;99.90
6538;DHT22;3302;52.508;13.454;2022-12-01T01:33:51;1.40;99.90
6538;DHT22;3302;52.508;13.454;2022-12-01T01:36:17;1.30;99.90
6538;DHT22;3302;52.508;13.454;2022-12-01T01:38:44;1.50;99.90
6538;DHT22;3302;52.508;13.454;2022-12-01T01:41:10;1.40;99.90
6538;DHT22;3302;52.508;13.454;2022-12-01T01:43:46;1.30;99.90
6538;DHT22;3302;52.508;13.454;2022-12-01T01:46:18;1.40;99.90
6538;DHT22;3302;52.508;13.454;2022-12-01T01:49:00;1.30;99.90
6538;DHT22;3302;52.508;13.454;2022-12-01T01:51:37;1.30;99.90
6538;DHT22;3302;52.508;13.454;2022-12-01T01:54:11;1.50;99.90
6538;DHT22;3302;52.508;13.454;2022-12-01T01:56:42;1.40;99.90
6538;DHT22;3302;52.508;13.454;2022-12-01T01:59:10;1.50;99.90
6538;DHT22;3302;52.508;13.454;2022-12-01T02:01:37;1.40;99.90
6538;DHT22;3302;52.508;13.454;2022-12-01T02:04:03;1.40;99.90
6538;DHT22;3302;52.508;13.454;2022-12-01T02:06:30;1.40;99.90
6538;DHT22;3302;52.508;13.454;2022-12-01T02:08:55;1.60;99.90
6538;DHT22;3302;52.508;13.454;2022-12-01T02:16:56;1.40;99.90
6538;DHT22;3302;52.508;13.454;2022-12-01T02:25:20;1.30;99.90
6538;DHT22;3302;52.508;13.454;2022-12-01T02:28:10;1.30;99.90
6538;DHT22;3302;52.508;13.454;2022-12-01T02:30:46;1.30;99.90
6538;DHT22;3302;52.508;13.454;2022-12-01T02:33:18;1.50;99.90
6538;DHT22;3302;52.508;13.454;2022-12-01T02:36:31;1.30;99.90
6538;DHT22;3302;52.508;13.454;2022-12-01T02:41:33;1.30;99.90
6538;DHT22;3302;52.508;13.454;2022-12-01T02:44:24;1.30;99.90
6538;DHT22;3302;52.508;13.454;2022-12-01T02:46:56;1.40;99.90
6538;DHT22;3302;52.508;13.454;2022-12-01T02:49:31;1.50;99.90
6538;DHT22;3302;52.508;13.454;2022-12-01T02:51:59;1.40;99.90
6538;DHT22;3302;52.508;13.454;2022-12-01T02:54:29;1.20;99.90
6538;DHT22;3302;52.508;13.454;2022-12-01T02:56:56;1.30;99.90
6538;DHT22;3302;52.508;13.454;2022-12-01T02:59:21;1.40;99.90
6538;DHT22;3302;52.508;13.454;2022-12-01T03:01:51;1.30;99.90
6538;DHT22;3302;52.508;13.454;2022-12-01T03:09:37;0.90;99.90
6538;DHT22;3302;52.508;13.454;2022-12-01T03:17:45;1.40;99.90
6538;DHT22;3302;52.508;13.454;2022-12-01T03:20:18;1.30;99.90
6538;DHT22;3302;52.508;13.454;2022-12-01T03:22:57;1.30;99.90
6538;DHT22;3302;52.508;13.454;2022-12-01T03:25:25;1.40;99.90
6538;DHT22;3302;52.508;13.454;2022-12-01T03:27:54;1.40;99.90
6538;DHT22;3302;52.508;13.454;2022-12-01T03:30:23;1.30;99.90
6538;DHT22;3302;52.508;13.454;2022-12-01T03:33:15;1.40;99.90
6538;DHT22;3302;52.508;13.454;2022-12-01T03:35:51;1.10;99.90
6538;DHT22;3302;52.508;13.454;2022-12-01T03:38:23;1.30;99.90
6538;DHT22;3302;52.508;13.454;2022-12-01T03:40:51;1.30;99.90
6538;DHT22;3302;52.508;13.454;2022-12-01T03:43:24;1.50;99.90
6538;DHT22;3302;52.508;13.454;2022-12-01T03:48:26;1.30;99.90
6538;DHT22;3302;52.508;13.454;2022-12-01T03:51:52;1.00;99.90
6538;DHT22;3302;52.508;13.454;2022-12-01T03:54:10;0.90;99.90
6538;DHT22;3302;52.508;13.454;2022-12-01T03:56:51;1.10;99.90
6538;DHT22;3302;52.508;13.454;2022-12-01T03:59:20;1.10;99.90
6538;DHT22;3302;52.508;13.454;2022-12-01T04:01:47;0.90;99.90
6538;DHT22;3302;52.508;13.454;2022-12-01T04:04:13;0.80;99.90
6538;DHT22;3302;52.508;13.454;2022-12-01T04:06:42;1.00;99.90
6538;DHT22;3302;52.508;13.454;2022-12-01T04:09:09;1.20;99.90
6538;DHT22;3302;52.508;13.454;2022-12-01T04:11:35;1.10;99.90
6538;DHT22;3302;52.508;13.454;2022-12-01T04:14:19;1.00;99.90
6538;DHT22;3302;52.508;13.454;2022-12-01T04:16:45;1.00;99.90
6538;DHT22;3302;52.508;13.454;2022-12-01T04:19:10;1.00;99.90
6538;DHT22;3302;52.508;13.454;2022-12-01T04:21:36;1.00;99.90
6538;DHT22;3302;52.508;13.454;2022-12-01T04:24:02;1.10;99.90
6538;DHT22;3302;52.508;13.454;2022-12-01T04:26:34;1.20;99.90
6538;DHT22;3302;52.508;13.454;2022-12-01T04:29:06;1.20;99.90
6538;DHT22;3302;52.508;13.454;2022-12-01T04:31:32;1.30;99.90
6538;DHT22;3302;52.508;13.454;2022-12-01T04:33:59;1.30;99.90
6538;DHT22;3302;52.508;13.454;2022-12-01T04:36:26;1.40;99.90
6538;DHT22;3302;52.508;13.454;2022-12-01T04:38:52;1.40;99.90
6538;DHT22;3302;52.508;13.454;2022-12-01T04:41:18;1.20;99.90
6538;DHT22;3302;52.508;13.454;2022-12-01T04:43:43;1.30;99.90
6538;DHT22;3302;52.508;13.454;2022-12-01T04:46:09;1.10;99.90
6538;DHT22;3302;52.508;13.454;2022-12-01T04:48:37;1.10;99.90
6538;DHT22;3302;52.508;13.454;2022-12-01T04:51:04;1.30;99.90
6538;DHT22;3302;52.508;13.454;2022-12-01T04:53:31;1.20;99.90
6538;DHT22;3302;52.508;13.454;2022-12-01T04:55:59;1.30;99.90
6538;DHT22;3302;52.508;13.454;2022-12-01T04:58:26;1.30;99.90
6538;DHT22;3302;52.508;13.454;2022-12-01T05:00:52;1.30;99.90
6538;DHT22;3302;52.508;13.454;2022-12-01T05:03:17;1.20;99.90
6538;DHT22;3302;52.508;13.454;2022-12-01T05:05:43;1.20;99.90
6538;DHT22;3302;52.508;13.454;2022-12-01T05:08:09;1.00;99.90
6538;DHT22;3302;52.508;13.454;2022-12-01T05:10:36;1.00;99.90
6538;DHT22;3302;52.508;13.454;2022-12-01T05:13:05;0.90;99.90
6538;DHT22;3302;52.508;13.454;2022-12-01T05:15:31;1.00;99.90
6538;DHT22;3302;52.508;13.454;2022-12-01T05:17:57;1.10;99.90
6538;DHT22;3302;52.508;13.454;2022-12-01T05:20:26;1.10;99.90
6538;DHT22;3302;52.508;13.454;2022-12-01T05:23:11;1.10;99.90
6538;DHT22;3302;52.508;13.454;2022-12-01T05:25:37;1.20;99.90
6538;DHT22;3302;52.508;13.454;2022-12-01T05:28:04;1.30;99.90
6538;DHT22;3302;52.508;13.454;2022-12-01T05:30:31;1.30;99.90
6538;DHT22;3302;52.508;13.454;2022-12-01T05:32:56;0.90;99.90
6538;DHT22;3302;52.508;13.454;2022-12-01T05:35:22;0.90;99.90
6538;DHT22;3302;52.508;13.454;2022-12-01T05:37:48;1.00;99.90
6538;DHT22;3302;52.508;13.454;2022-12-01T05:40:14;1.10;99.90
6538;DHT22;3302;52.508;13.454;2022-12-01T05:42:39;1.10;99.90
6538;DHT22;3302;52.508;13.454;2022-12-01T05:45:06;1.10;99.90
6538;DHT22;3302;52.508;13.454;2022-12-01T05:47:32;1.20;99.90
6538;DHT22;3302;52.508;13.454;2022-12-01T05:49:57;1.20;99.90
6538;DHT22;3302;52.508;13.454;2022-12-01T05:52:23;1.10;99.90
6538;DHT22;3302;52.508;13.454;2022-12-01T05:54:49;1.30;99.90
6538;DHT22;3302;52.508;13.454;2022-12-01T05:57:14;1.30;99.90
6538;DHT22;3302;52.508;13.454;2022-12-01T05:59:40;1.30;99.90
6538;DHT22;3302;52.508;13.454;2022-12-01T06:02:06;1.30;99.90
6538;DHT22;3302;52.508;13.454;2022-12-01T06:04:32;1.40;99.90
6538;DHT22;3302;52.508;13.454;2022-12-01T06:06:57;1.30;99.90
6538;DHT22;3302;52.508;13.454;2022-12-01T06:09:23;1.30;99.90
6538;DHT22;3302;52.508;13.454;2022-12-01T06:11:49;1.10;99.90
6538;DHT22;3302;52.508;13.454;2022-12-01T06:14:15;1.20;99.90
6538;DHT22;3302;52.508;13.454;2022-12-01T06:16:41;1.00;99.90
6538;DHT22;3302;52.508;13.454;2022-12-01T06:19:07;1.20;99.90
6538;DHT22;3302;52.508;13.454;2022-12-01T06:21:32;1.20;99.90
6538;DHT22;3302;52.508;13.454;2022-12-01T06:23:58;1.00;99.90
6538;DHT22;3302;52.508;13.454;2022-12-01T06:26:24;1.20;99.90
6538;DHT22;3302;52.508;13.454;2022-12-01T06:28:50;1.10;99.90
6538;DHT22;3302;52.508;13.454;2022-12-01T06:31:15;1.20;99.90
6538;DHT22;3302;52.508;13.454;2022-12-01T06:33:41;1.20;99.90
6538;DHT22;3302;52.508;13.454;2022-12-01T06:36:07;1.10;99.90
6538;DHT22;3302;52.508;13.454;2022-12-01T06:38:36;1.10;99.90
6538;DHT22;3302;52.508;13.454;2022-12-01T06:41:02;1.00;99.90
6538;DHT22;3302;52.508;13.454;2022-12-01T06:43:28;1.30;99.90
6538;DHT22;3302;52.508;13.454;2022-12-01T06:45:54;1.30;99.90
6538;DHT22;3302;52.508;13.454;2022-12-01T06:48:20;1.40;99.90
6538;DHT22;3302;52.508;13.454;2022-12-01T06:50:46;1.20;99.90
6538;DHT22;3302;52.508;13.454;2022-12-01T06:53:12;1.30;99.90
6538;DHT22;3302;52.508;13.454;2022-12-01T06:55:38;1.40;99.90
6538;DHT22;3302;52.508;13.454;2022-12-01T06:58:04;1.40;99.90
6538;DHT22;3302;52.508;13.454;2022-12-01T07:00:30;1.30;99.90
6538;DHT22;3302;52.508;13.454;2022-12-01T07:02:56;1.40;99.90
6538;DHT22;3302;52.508;13.454;2022-12-01T07:05:22;1.10;99.90
6538;DHT22;3302;52.508;13.454;2022-12-01T07:07:47;1.00;99.90
6538;DHT22;3302;52.508;13.454;2022-12-01T07:10:14;1.20;99.90
6538;DHT22;3302;52.508;13.454;2022-12-01T07:12:40;1.10;99.90
6538;DHT22;3302;52.508;13.454;2022-12-01T07:15:07;1.00;99.90
6538;DHT22;3302;52.508;13.454;2022-12-01T07:17:34;1.10;99.90
6538;DHT22;3302;52.508;13.454;2022-12-01T07:20:00;1.20;99.90
6538;DHT22;3302;52.508;13.454;2022-12-01T07:22:27;1.20;99.90
6538;DHT22;3302;52.508;13.454;2022-12-01T07:24:53;1.20;99.90
6538;DHT22;3302;52.508;13.454;2022-12-01T07:27:18;1.00;99.90
6538;DHT22;3302;52.508;13.454;2022-12-01T07:29:44;1.30;99.90
6538;DHT22;3302;52.508;13.454;2022-12-01T07:32:10;1.10;99.90
6538;DHT22;3302;52.508;13.454;2022-12-01T07:34:35;1.20;99.90
6538;DHT22;3302;52.508;13.454;2022-12-01T07:37:01;1.10;99.90
6538;DHT22;3302;52.508;13.454;2022-12-01T07:39:27;1.10;99.90
6538;DHT22;3302;52.508;13.454;2022-12-01T07:41:53;1.20;99.90
6538;DHT22;3302;52.508;13.454;2022-12-01T07:44:19;1.30;99.90
6538;DHT22;3302;52.508;13.454;2022-12-01T07:46:44;1.30;99.90
6538;DHT22;3302;52.508;13.454;2022-12-01T07:49:10;1.30;99.90
6538;DHT22;3302;52.508;13.454;2022-12-01T07:51:39;1.00;99.90
6538;DHT22;3302;52.508;13.454;2022-12-01T07:54:05;1.20;99.90
6538;DHT22;3302;52.508;13.454;2022-12-01T07:56:32;1.20;99.90
6538;DHT22;3302;52.508;13.454;2022-12-01T07:58:57;1.40;99.90
6538;DHT22;3302;52.508;13.454;2022-12-01T08:01:24;1.30;99.90
6538;DHT22;3302;52.508;13.454;2022-12-01T08:03:57;1.30;99.90
6538;DHT22;3302;52.508;13.454;2022-12-01T08:06:24;1.40;99.90
6538;DHT22;3302;52.508;13.454;2022-12-01T08:08:50;1.40;99.90
6538;DHT22;3302;52.508;13.454;2022-12-01T08:11:21;1.50;99.90
6538;DHT22;3302;52.508;13.454;2022-12-01T08:13:47;1.60;99.90
6538;DHT22;3302;52.508;13.454;2022-12-01T08:16:15;1.60;99.90
6538;DHT22;3302;52.508;13.454;2022-12-01T08:18:42;1.60;99.90
6538;DHT22;3302;52.508;13.454;2022-12-01T08:21:10;1.60;99.90
6538;DHT22;3302;52.508;13.454;2022-12-01T08:23:36;1.50;99.90
6538;DHT22;3302;52.508;13.454;2022-12-01T08:26:04;1.40;99.90
6538;DHT22;3302;52.508;13.454;2022-12-01T08:28:30;1.30;99.90
6538;DHT22;3302;52.508;13.454;2022-12-01T08:30:56;1.20;99.90
6538;DHT22;3302;52.508;13.454;2022-12-01T08:33:22;1.10;99.90
6538;DHT22;3302;52.508;13.454;2022-12-01T08:35:48;1.10;99.90
6538;DHT22;3302;52.508;13.454;2022-12-01T08:38:14;1.20;99.90
6538;DHT22;3302;52.508;13.454;2022-12-01T08:40:40;1.40;99.90
6538;DHT22;3302;52.508;13.454;2022-12-01T08:43:06;1.50;99.90
6538;DHT22;3302;52.508;13.454;2022-12-01T08:45:32;1.40;99.90
6538;DHT22;3302;52.508;13.454;2022-12-01T08:47:58;1.30;99.90
6538;DHT22;3302;52.508;13.454;2022-12-01T08:50:25;1.30;99.90
6538;DHT22;3302;52.508;13.454;2022-12-01T08:52:51;1.40;99.90
6538;DHT22;3302;52.508;13.454;2022-12-01T08:55:18;1.30;99.90
6538;DHT22;3302;52.508;13.454;2022-12-01T08:57:44;1.20;99.90
6538;DHT22;3302;52.508;13.454;2022-12-01T09:00:10;1.40;99.90
6538;DHT22;3302;52.508;13.454;2022-12-01T09:02:37;1.20;99.90
6538;DHT22;3302;52.508;13.454;2022-12-01T09:05:03;1.20;99.90
6538;DHT22;3302;52.508;13.454;2022-12-01T09:07:29;1.20;99.90
6538;DHT22;3302;52.508;13.454;2022-12-01T09:09:55;1.30;99.90
6538;DHT22;3302;52.508;13.454;2022-12-01T09:12:21;1.10;99.90
6538;DHT22;3302;52.508;13.454;2022-12-01T09:14:47;1.20;99.90
6538;DHT22;3302;52.508;13.454;2022-12-01T09:17:15;1.40;99.90
6538;DHT22;3302;52.508;13.454;2022-12-01T09:19:42;1.30;99.90
6538;DHT22;3302;52.508;13.454;2022-12-01T09:22:09;1.20;99.90
6538;DHT22;3302;52.508;13.454;2022-12-01T09:24:34;1.20;99.90
6538;DHT22;3302;52.508;13.454;2022-12-01T09:27:00;1.40;99.90
6538;DHT22;3302;52.508;13.454;2022-12-01T09:29:28;1.40;99.90
6538;DHT22;3302;52.508;13.454;2022-12-01T09:31:55;1.30;99.90
6538;DHT22;3302;52.508;13.454;2022-12-01T09:34:22;1.30;99.90
6538;DHT22;3302;52.508;13.454;2022-12-01T09:36:48;1.40;99.90
6538;DHT22;3302;52.508;13.454;2022-12-01T09:39:18;1.40;99.90
6538;DHT22;3302;52.508;13.454;2022-12-01T09:41:54;1.50;99.90
6538;DHT22;3302;52.508;13.454;2022-12-01T09:44:38;1.40;99.90
6538;DHT22;3302;52.508;13.454;2022-12-01T09:49:46;1.50;99.90
6538;DHT22;3302;52.508;13.454;2022-12-01T09:52:17;1.40;99.90
6538;DHT22;3302;52.508;13.454;2022-12-01T09:54:44;1.30;99.90
6538;DHT22;3302;52.508;13.454;2022-12-01T09:57:26;1.50;99.90
6538;DHT22;3302;52.508;13.454;2022-12-01T09:59:53;1.60;99.90
6538;DHT22;3302;52.508;13.454;2022-12-01T10:02:42;1.40;99.90
6538;DHT22;3302;52.508;13.454;2022-12-01T10:05:19;1.50;99.90
6538;DHT22;3302;52.508;13.454;2022-12-01T10:10:25;1.50;99.90
6538;DHT22;3302;52.508;13.454;2022-12-01T10:12:52;1.50;99.90
6538;DHT22;3302;52.508;13.454;2022-12-01T10:27:19;1.70;99.90
6538;DHT22;3302;52.508;13.454;2022-12-01T10:30:17;1.50;99.90
6538;DHT22;3302;52.508;13.454;2022-12-01T10:32:56;1.40;99.90
6538;DHT22;3302;52.508;13.454;2022-12-01T10:35:28;1.70;99.90
6538;DHT22;3302;52.508;13.454;2022-12-01T10:38:03;1.60;99.90
6538;DHT22;3302;52.508;13.454;2022-12-01T10:40:29;1.60;99.90
6538;DHT22;3302;52.508;13.454;2022-12-01T10:43:00;1.50;99.90
6538;DHT22;3302;52.508;13.454;2022-12-01T10:45:33;1.50;99.90
6538;DHT22;3302;52.508;13.454;2022-12-01T10:48:20;1.50;99.90
6538;DHT22;3302;52.508;13.454;2022-12-01T10:50:52;1.60;99.90
6538;DHT22;3302;52.508;13.454;2022-12-01T10:53:33;1.60;99.90
6538;DHT22;3302;52.508;13.454;2022-12-01T10:56:15;1.70;99.90
6538;DHT22;3302;52.508;13.454;2022-12-01T10:58:58;1.80;99.90
6538;DHT22;3302;52.508;13.454;2022-12-01T11:01:30;1.70;99.90
6538;DHT22;3302;52.508;13.454;2022-12-01T11:06:28;1.80;99.90
6538;DHT22;3302;52.508;13.454;2022-12-01T11:08:56;1.50;99.90
6538;DHT22;3302;52.508;13.454;2022-12-01T11:11:39;1.40;99.90
6538;DHT22;3302;52.508;13.454;2022-12-01T11:14:16;1.60;99.90
6538;DHT22;3302;52.508;13.454;2022-12-01T11:16:45;1.70;99.90
6538;DHT22;3302;52.508;13.454;2022-12-01T11:19:30;1.70;99.90
6538;DHT22;3302;52.508;13.454;2022-12-01T11:21:59;1.60;99.90
6538;DHT22;3302;52.508;13.454;2022-12-01T11:27:33;1.60;99.90
6538;DHT22;3302;52.508;13.454;2022-12-01T11:30:04;1.70;99.90
6538;DHT22;3302;52.508;13.454;2022-12-01T11:32:36;1.80;99.90
6538;DHT22;3302;52.508;13.454;2022-12-01T11:35:23;1.90;99.90
6538;DHT22;3302;52.508;13.454;2022-12-01T11:37:53;1.90;99.90
6538;DHT22;3302;52.508;13.454;2022-12-01T11:40:28;1.70;99.90
6538;DHT22;3302;52.508;13.454;2022-12-01T11:43:00;1.70;99.90
6538;DHT22;3302;52.508;13.454;2022-12-01T11:45:40;1.70;99.90
6538;DHT22;3302;52.508;13.454;2022-12-01T11:51:03;1.70;99.90
6538;DHT22;3302;52.508;13.454;2022-12-01T11:53:37;1.80;99.90
6538;DHT22;3302;52.508;13.454;2022-12-01T11:56:21;1.70;99.90
6538;DHT22;3302;52.508;13.454;2022-12-01T11:58:50;1.80;99.90
6538;DHT22;3302;52.508;13.454;2022-12-01T12:10:02;1.70;99.90
6538;DHT22;3302;52.508;13.454;2022-12-01T12:13:01;2.00;99.90
6538;DHT22;3302;52.508;13.454;2022-12-01T12:26:39;1.90;99.90
6538;DHT22;3302;52.508;13.454;2022-12-01T12:34:51;1.70;99.90
6538;DHT22;3302;52.508;13.454;2022-12-01T12:37:43;1.90;99.90
6538;DHT22;3302;52.508;13.454;2022-12-01T12:47:59;1.90;99.90
6538;DHT22;3302;52.508;13.454;2022-12-01T12:51:05;1.80;99.90
6538;DHT22;3302;52.508;13.454;2022-12-01T12:53:59;1.90;99.90
6538;DHT22;3302;52.508;13.454;2022-12-01T12:56:29;2.10;99.90
6538;DHT22;3302;52.508;13.454;2022-12-01T12:59:01;1.90;99.90
6538;DHT22;3302;52.508;13.454;2022-12-01T13:01:37;1.90;99.90
6538;DHT22;3302;52.508;13.454;2022-12-01T13:04:10;1.80;99.90
6538;DHT22;3302;52.508;13.454;2022-12-01T13:06:45;1.90;99.90
6538;DHT22;3302;52.508;13.454;2022-12-01T13:11:54;1.70;99.90
6538;DHT22;3302;52.508;13.454;2022-12-01T13:14:28;1.80;99.90
6538;DHT22;3302;52.508;13.454;2022-12-01T13:19:39;1.80;99.90
6538;DHT22;3302;52.508;13.454;2022-12-01T13:22:11;1.70;99.90
6538;DHT22;3302;52.508;13.454;2022-12-01T13:24:37;1.80;99.90
6538;DHT22;3302;52.508;13.454;2022-12-01T13:29:37;1.80;99.90
6538;DHT22;3302;52.508;13.454;2022-12-01T13:32:05;1.90;99.90
6538;DHT22;3302;52.508;13.454;2022-12-01T13:34:39;1.90;99.90
6538;DHT22;3302;52.508;13.454;2022-12-01T13:37:07;1.80;99.90
6538;DHT22;3302;52.508;13.454;2022-12-01T13:39:36;1.90;99.90
6538;DHT22;3302;52.508;13.454;2022-12-01T13:42:06;2.00;99.90
6538;DHT22;3302;52.508;13.454;2022-12-01T13:44:44;2.00;99.90
6538;DHT22;3302;52.508;13.454;2022-12-01T13:49:37;1.90;99.90
6538;DHT22;3302;52.508;13.454;2022-12-01T13:57:26;2.00;99.90
6538;DHT22;3302;52.508;13.454;2022-12-01T14:02:30;2.10;99.90
6538;DHT22;3302;52.508;13.454;2022-12-01T14:08:32;2.10;99.90
6538;DHT22;3302;52.508;13.454;2022-12-01T14:11:22;2.10;99.90
6538;DHT22;3302;52.508;13.454;2022-12-01T14:16:51;2.10;99.90
6538;DHT22;3302;52.508;13.454;2022-12-01T14:19:28;2.10;99.90
6538;DHT22;3302;52.508;13.454;2022-12-01T14:21:54;2.20;99.90
6538;DHT22;3302;52.508;13.454;2022-12-01T14:24:34;2.10;99.90
6538;DHT22;3302;52.508;13.454;2022-12-01T14:27:02;2.20;99.90
6538;DHT22;3302;52.508;13.454;2022-12-01T14:29:36;2.20;99.90
6538;DHT22;3302;52.508;13.454;2022-12-01T14:34:34;2.00;99.90
6538;DHT22;3302;52.508;13.454;2022-12-01T14:42:35;1.90;99.90
6538;DHT22;3302;52.508;13.454;2022-12-01T14:45:38;2.10;99.90
6538;DHT22;3302;52.508;13.454;2022-12-01T14:48:10;2.10;99.90
6538;DHT22;3302;52.508;13.454;2022-12-01T14:50:45;2.20;99.90
6538;DHT22;3302;52.508;13.454;2022-12-01T14:53:26;2.30;99.90
6538;DHT22;3302;52.508;13.454;2022-12-01T14:56:08;2.20;99.90
6538;DHT22;3302;52.508;13.454;2022-12-01T14:58:35;2.20;99.90
6538;DHT22;3302;52.508;13.454;2022-12-01T15:01:10;2.20;99.90
6538;DHT22;3302;52.508;13.454;2022-12-01T15:03:40;2.20;99.90
6538;DHT22;3302;52.508;13.454;2022-12-01T15:06:07;2.30;99.90
6538;DHT22;3302;52.508;13.454;2022-12-01T15:08:35;2.20;99.90
6538;DHT22;3302;52.508;13.454;2022-12-01T15:11:04;2.20;99.90
6538;DHT22;3302;52.508;13.454;2022-12-01T15:13:48;2.00;99.90
6538;DHT22;3302;52.508;13.454;2022-12-01T15:16:17;2.10;99.90
6538;DHT22;3302;52.508;13.454;2022-12-01T15:18:44;2.00;99.90
6538;DHT22;3302;52.508;13.454;2022-12-01T15:21:17;2.00;99.90
6538;DHT22;3302;52.508;13.454;2022-12-01T15:24:02;2.10;99.90
6538;DHT22;3302;52.508;13.454;2022-12-01T15:26:49;2.00;99.90
6538;DHT22;3302;52.508;13.454;2022-12-01T15:31:43;1.90;99.90
6538;DHT22;3302;52.508;13.454;2022-12-01T15:34:15;1.80;99.90
6538;DHT22;3302;52.508;13.454;2022-12-01T15:36:42;1.80;99.90
6538;DHT22;3302;52.508;13.454;2022-12-01T15:39:16;1.80;99.90
6538;DHT22;3302;52.508;13.454;2022-12-01T15:41:45;1.90;99.90
6538;DHT22;3302;52.508;13.454;2022-12-01T15:44:20;2.00;99.90
6538;DHT22;3302;52.508;13.454;2022-12-01T15:46:46;2.10;99.90
6538;DHT22;3302;52.508;13.454;2022-12-01T15:49:24;2.10;99.90
6538;DHT22;3302;52.508;13.454;2022-12-01T15:52:03;2.00;99.90
6538;DHT22;3302;52.508;13.454;2022-12-01T15:54:29;1.80;99.90
6538;DHT22;3302;52.508;13.454;2022-12-01T15:56:56;1.90;99.90
6538;DHT22;3302;52.508;13.454;2022-12-01T16:01:51;1.80;99.90
6538;DHT22;3302;52.508;13.454;2022-12-01T16:04:20;1.70;99.90
6538;DHT22;3302;52.508;13.454;2022-12-01T16:07:03;1.80;99.90
6538;DHT22;3302;52.508;13.454;2022-12-01T16:12:25;1.80;99.90
6538;DHT22;3302;52.508;13.454;2022-12-01T16:17:47;1.70;99.90
6538;DHT22;3302;52.508;13.454;2022-12-01T16:20:33;1.70;99.90
6538;DHT22;3302;52.508;13.454;2022-12-01T16:23:03;1.80;99.90
6538;DHT22;3302;52.508;13.454;2022-12-01T16:25:33;1.80;99.90
6538;DHT22;3302;52.508;13.454;2022-12-01T16:28:01;1.90;99.90
6538;DHT22;3302;52.508;13.454;2022-12-01T16:30:32;1.90;99.90
6538;DHT22;3302;52.508;13.454;2022-12-01T16:33:01;1.90;99.90
6538;DHT22;3302;52.508;13.454;2022-12-01T16:35:30;1.90;99.90
6538;DHT22;3302;52.508;13.454;2022-12-01T16:37:57;1.80;99.90
6538;DHT22;3302;52.508;13.454;2022-12-01T16:40:23;1.70;99.90
6538;DHT22;3302;52.508;13.454;2022-12-01T16:42:50;1.80;99.90
6538;DHT22;3302;52.508;13.454;2022-12-01T16:45:17;1.80;99.90
6538;DHT22;3302;52.508;13.454;2022-12-01T16:47:45;1.70;99.90
6538;DHT22;3302;52.508;13.454;2022-12-01T16:50:15;1.90;99.90
6538;DHT22;3302;52.508;13.454;2022-12-01T16:52:42;1.70;99.90
6538;DHT22;3302;52.508;13.454;2022-12-01T16:55:40;1.70;99.90
6538;DHT22;3302;52.508;13.454;2022-12-01T16:58:06;1.80;99.90
6538;DHT22;3302;52.508;13.454;2022-12-01T17:00:32;1.70;99.90
6538;DHT22;3302;52.508;13.454;2022-12-01T17:02:58;1.80;99.90
6538;DHT22;3302;52.508;13.454;2022-12-01T17:05:24;1.80;99.90
6538;DHT22;3302;52.508;13.454;2022-12-01T17:07:50;1.80;99.90
6538;DHT22;3302;52.508;13.454;2022-12-01T17:10:16;1.80;99.90
6538;DHT22;3302;52.508;13.454;2022-12-01T17:12:42;1.80;99.90
6538;DHT22;3302;52.508;13.454;2022-12-01T17:15:08;1.80;99.90
6538;DHT22;3302;52.508;13.454;2022-12-01T17:17:35;1.80;99.90
6538;DHT22;3302;52.508;13.454;2022-12-01T17:20:01;1.80;99.90
6538;DHT22;3302;52.508;13.454;2022-12-01T17:22:27;1.70;99.90
6538;DHT22;3302;52.508;13.454;2022-12-01T17:24:53;1.80;99.90
6538;DHT22;3302;52.508;13.454;2022-12-01T17:27:21;1.80;99.90
6538;DHT22;3302;52.508;13.454;2022-12-01T17:29:47;1.60;99.90
6538;DHT22;3302;52.508;13.454;2022-12-01T17:32:13;1.80;99.90
6538;DHT22;3302;52.508;13.454;2022-12-01T17:34:39;1.90;99.90
6538;DHT22;3302;52.508;13.454;2022-12-01T17:37:05;1.90;99.90
6538;DHT22;3302;52.508;13.454;2022-12-01T17:39:30;1.90;99.90
6538;DHT22;3302;52.508;13.454;2022-12-01T17:41:56;1.80;99.90
6538;DHT22;3302;52.508;13.454;2022-12-01T17:44:22;1.80;99.90
6538;DHT22;3302;52.508;13.454;2022-12-01T17:46:48;1.70;99.90
6538;DHT22;3302;52.508;13.454;2022-12-01T17:49:13;1.70;99.90
6538;DHT22;3302;52.508;13.454;2022-12-01T17:51:39;1.80;99.90
6538;DHT22;3302;52.508;13.454;2022-12-01T17:54:06;1.90;99.90
6538;DHT22;3302;52.508;13.454;2022-12-01T17:56:32;1.70;99.90
6538;DHT22;3302;52.508;13.454;2022-12-01T17:58:58;1.80;99.90
6538;DHT22;3302;52.508;13.454;2022-12-01T18:01:24;1.90;99.90
6538;DHT22;3302;52.508;13.454;2022-12-01T18:03:50;1.90;99.90
6538;DHT22;3302;52.508;13.454;2022-12-01T18:06:16;1.90;99.90
6538;DHT22;3302;52.508;13.454;2022-12-01T18:08:43;1.90;99.90
6538;DHT22;3302;52.508;13.454;2022-12-01T18:11:13;1.90;99.90
6538;DHT22;3302;52.508;13.454;2022-12-01T18:13:41;1.70;99.90
6538;DHT22;3302;52.508;13.454;2022-12-01T18:16:14;1.80;99.90
6538;DHT22;3302;52.508;13.454;2022-12-01T18:18:40;1.80;99.90
6538;DHT22;3302;52.508;13.454;2022-12-01T18:21:07;1.80;99.90
6538;DHT22;3302;52.508;13.454;2022-12-01T18:23:34;1.90;99.90
6538;DHT22;3302;52.508;13.454;2022-12-01T18:26:10;2.00;99.90
6538;DHT22;3302;52.508;13.454;2022-12-01T18:28:37;2.00;99.90